Skip to Main Content
SEARCH:
Location Air RH Dwp Precip Type Wind Speed Wind Gust Direction Pavement Temperature Date/Time
Hatem Bridge US 40 E/B - - - No Data Available - - No Data Available -
I-270 at I-370 68 55 51 None Calm Calm N 71 - 87 6/28/2017 9:45:00 AM
I-270 at MD-109 71 56 55 None Calm 7 mph SW 85 - 85 6/28/2017 9:45:00 AM
I-495 at American Legion Bridge 70 52 52 None Calm 7 mph SW 87 - 88 6/28/2017 9:45:00 AM
I-68 at MD-219 59 66 48 None 9 mph 14 mph W 75 - 81 6/28/2017 9:45:00 AM
I-68 at Savage Mt 63 59 48 None Calm 11 mph SW 80 - 80 6/28/2017 9:45:00 AM
I-68 at Sideling Hill 62 76 55 None Calm 8 mph W 84 - 87 6/28/2017 9:45:00 AM
I-68 at WV Line 62 67 51 None 6 mph 13 mph SW 73 - 79 6/28/2017 9:45:00 AM
I-695 at I-83 72 42 48 None Calm 9 mph N 84 - 89 6/28/2017 9:45:00 AM
I-70 at Fred-Wash Co. - - - No Data Available - - No Data Available -
I-70 at I-695 70 47 49 None 5 mph 11 mph SW 70 - 90 6/28/2017 9:45:00 AM
I-70 at I-81 - - - No Data Available - - No Data Available -
I-70 at MD-27 68 59 54 None Calm 7 mph SE 86 - 89 6/28/2017 9:45:00 AM
I-70 at MD-32 68 56 52 None Calm 7 mph SW 74 - 83 6/28/2017 9:45:00 AM
I-83 at MD-137 68 55 52 None Calm 7 mph SW 87 - 87 6/28/2017 9:45:00 AM
I-95 at I-695 NE 70 42 46 None 4 mph 8 mph NW 85 - 97 6/28/2017 9:49:00 AM
I-95 at Patuxent River 72 47 51 None 5 mph 10 mph S 86 - 90 6/28/2017 9:45:00 AM
I-95 at Tydings Bridge 71 53 53 None Calm Calm NW 82 - 90 6/28/2017 9:45:00 AM
I-95/495 at I-295 76 45 53 None Calm 5 mph W 78 - 87 6/28/2017 9:45:00 AM
I-97 at MD-100 73 42 49 None Calm 10 mph NW 87 - 91 6/28/2017 9:45:00 AM
I-97 at MD-32 72 49 52 None 7 mph 10 mph NW 78 - 89 6/28/2017 9:45:00 AM
MD 20 at MD 21 71 48 51 None 5 mph 8 mph NW 98 - 98 6/28/2017 9:45:00 AM
MD 231 at Patuxent River 71 56 54 None Calm Calm NE 86 - 90 6/28/2017 9:45:00 AM
MD 260 at Cox Rd 73 50 54 None Calm Calm NE 96 - 96 6/28/2017 9:45:00 AM
MD-135 at Salt Dome 60 73 52 None 4 mph 14 mph W 82 - 82 6/28/2017 9:45:00 AM
MD-140 at MD-97 66 58 51 None 4 mph 7 mph NW 86 - 86 6/28/2017 9:45:00 AM
MD-200 EB at Bonifant Rd 70 50 51 None Calm 10 mph NW 89 - 91 6/28/2017 9:49:00 AM
MD-200 WB at Muncaster Mill Rd 70 48 50 None Calm 10 mph W 86 - 87 6/28/2017 9:49:00 AM
MD-213 at Sassafras River 71 55 54 None Calm 7 mph NW 92 - 92 6/28/2017 9:45:00 AM
MD-24 at Rock St Park 66 85 61 None Calm Calm N 84 - 84 6/28/2017 9:45:00 AM
MD-30 at PA Line 65 58 50 None 6 mph 10 mph W 86 - 86 6/28/2017 9:45:00 AM
MD-301 at MD-305 70 48 50 None 5 mph 10 mph NW 93 - 99 6/28/2017 9:45:00 AM
MD-33 at Knapps Narrows Drawbridge 73 50 53 None 6 mph 12 mph NW 95 - 95 6/28/2017 9:45:00 AM
MD-344 at MD-224 - - - No Data Available - - No Data Available -
MD-4 at Patuxent River 73 56 57 None - - No Data Available 86 - 89 6/28/2017 9:45:00 AM
MD-404 at Choptank River 70 44 48 None Calm 7 mph NW 89 - 93 6/28/2017 9:45:00 AM
MD-43 at MD-150 73 44 50 None 4 mph 7 mph W 87 - 88 6/28/2017 9:45:00 AM
MD-51 at Oldtown Salt Dome 62 73 53 None Calm 5 mph SW 91 - 91 6/28/2017 9:45:00 AM
MD-64 at MD-418 - - - No Data Available - - No Data Available -
US-1 at Baltimore / Harford Co. Line 69 52 51 None 5 mph 10 mph NE 80 - 86 6/28/2017 9:45:00 AM
US-1 at Conowingo Dam 68 61 54 None Calm Calm N 69 - 69 6/28/2017 9:45:00 AM
US-13 at US-113 69 56 53 None 7 mph 9 mph NE 100 - 100 6/28/2017 9:45:00 AM
US-13 at US-50 - - - No Data Available - - No Data Available -
US-15 at MD-140 69 61 55 None Calm 6 mph S 83 - 89 6/28/2017 9:45:00 AM
US-301 at MD-5 72 50 52 None Calm 7 mph NE 87 - 91 6/28/2017 9:45:00 AM
US-301 at Potomac 78 48 57 None Calm 5 mph NW 86 - 91 6/28/2017 9:45:00 AM
US-301 on HWN Bridge 70 55 53 None Calm Calm NE 82 - 82 6/28/2017 9:49:00 AM
US-340 at MD-180 69 56 52 None 5 mph 9 mph SW 88 - 88 6/28/2017 9:45:00 AM
US-50 at Choptank 72 46 50 None 5 mph 9 mph NE 91 - 91 6/28/2017 9:45:00 AM
US-50 at I-95 72 48 51 None Calm 7 mph W 87 - 91 6/28/2017 9:45:00 AM
US-50 at MD-2 71 46 49 None Calm 8 mph NW 73 - 84 6/28/2017 9:45:00 AM
US-50 at MD-331 73 49 53 None Calm 6 mph N 89 - 91 6/28/2017 9:45:00 AM
US-50 at OC Drawbridge 71 55 54 None 5 mph 10 mph NW 95 - 95 6/28/2017 9:45:00 AM
US-50 at Table Rock Rd 57 81 51 None 4 mph 9 mph NW 80 - 80 6/28/2017 9:45:00 AM
US-50 Kent Narrow Bridge 73 48 52 None 4 mph 7 mph N 87 - 90 6/28/2017 9:45:00 AM
WPL Pier 31 68 45 46 None 7 mph 7 mph NE 85 - 85 6/28/2017 9:49:00 AM
Location Air RH Dwp Precip Type Wind Speed Wind Gust Direction Pavement Temperature Date/Time